createdAt,value
2018-04-14T00:00:03.580Z,94.00
2018-04-14T00:02:31.826Z,94.00
2018-04-14T00:04:59.868Z,93.80
2018-04-14T00:07:27.912Z,93.70
2018-04-14T00:09:56.163Z,93.30
2018-04-14T00:12:24.750Z,93.50
2018-04-14T00:14:52.963Z,93.50
2018-04-14T00:17:21.829Z,93.60
2018-04-14T00:19:49.717Z,93.60
2018-04-14T00:22:18.745Z,93.40
2018-04-14T00:24:47.076Z,93.40
2018-04-14T00:27:15.235Z,93.50
2018-04-14T00:29:43.413Z,93.40
2018-04-14T00:32:12.726Z,93.60
2018-04-14T00:34:40.848Z,93.60
2018-04-14T00:37:09.095Z,93.50
2018-04-14T00:39:37.218Z,93.60
2018-04-14T00:42:05.472Z,93.80
2018-04-14T00:44:34.508Z,93.80
2018-04-14T00:47:02.355Z,94.40
2018-04-14T00:49:31.182Z,94.40
2018-04-14T00:51:59.424Z,94.40
2018-04-14T00:54:27.558Z,94.50
2018-04-14T00:56:55.675Z,94.30
2018-04-14T00:59:23.962Z,94.40
2018-04-14T01:01:52.136Z,94.40
2018-04-14T01:04:20.830Z,94.60
2018-04-14T01:06:49.080Z,94.90
2018-04-14T01:09:17.311Z,94.50
2018-04-14T01:11:45.502Z,94.70
2018-04-14T01:14:14.407Z,94.80
2018-04-14T01:16:42.640Z,94.80
2018-04-14T01:19:10.830Z,94.90
2018-04-14T01:21:38.734Z,94.90
2018-04-14T01:24:06.968Z,94.90
2018-04-14T01:26:35.221Z,94.70
2018-04-14T01:29:03.264Z,94.70
2018-04-14T01:31:31.265Z,94.70
2018-04-14T01:33:59.319Z,94.80
2018-04-14T01:36:27.402Z,94.80
2018-04-14T01:38:55.639Z,95.00
2018-04-14T01:41:23.686Z,95.30
2018-04-14T01:43:51.803Z,95.10
2018-04-14T01:46:19.919Z,94.80
2018-04-14T01:48:48.161Z,95.10
2018-04-14T01:51:16.466Z,94.70
2018-04-14T01:53:44.708Z,95.00
2018-04-14T01:56:12.716Z,95.10
2018-04-14T01:58:40.927Z,95.40
2018-04-14T02:01:09.822Z,95.50
2018-04-14T02:03:38.069Z,95.50
2018-04-14T02:06:06.308Z,95.30
2018-04-14T02:08:34.549Z,95.60
2018-04-14T02:11:02.473Z,95.80
2018-04-14T02:13:31.241Z,95.30
2018-04-14T02:15:59.347Z,95.40
2018-04-14T02:18:27.720Z,95.50
2018-04-14T02:20:56.755Z,95.90
2018-04-14T02:23:25.582Z,95.70
2018-04-14T02:25:53.691Z,95.70
2018-04-14T02:28:21.658Z,95.80
2018-04-14T02:30:49.922Z,95.90
2018-04-14T02:33:18.162Z,95.90
2018-04-14T02:35:46.397Z,96.40
2018-04-14T02:38:14.577Z,96.40
2018-04-14T02:40:43.198Z,96.50
2018-04-14T02:43:12.061Z,97.00
2018-04-14T02:45:40.683Z,96.90
2018-04-14T02:48:09.547Z,97.10
2018-04-14T02:50:37.818Z,97.00
2018-04-14T02:53:06.069Z,97.10
2018-04-14T02:55:34.302Z,97.30
2018-04-14T02:58:02.350Z,97.70
2018-04-14T03:00:30.531Z,97.80
2018-04-14T03:02:59.383Z,97.70
2018-04-14T03:05:27.670Z,98.00
2018-04-14T03:07:55.910Z,97.70
2018-04-14T03:10:24.236Z,97.70
2018-04-14T03:12:52.341Z,97.80
2018-04-14T03:15:20.453Z,97.80
2018-04-14T03:17:48.584Z,97.90
2018-04-14T03:20:16.925Z,98.00
2018-04-14T03:22:45.167Z,97.90
2018-04-14T03:25:13.361Z,98.10
2018-04-14T03:27:41.260Z,98.20
2018-04-14T03:30:09.413Z,98.10
2018-04-14T03:32:37.501Z,98.30
2018-04-14T03:35:05.468Z,98.30
2018-04-14T03:37:33.640Z,98.40
2018-04-14T03:40:01.395Z,98.50
2018-04-14T03:42:29.536Z,98.40
2018-04-14T03:44:57.762Z,98.40
2018-04-14T03:47:25.909Z,98.50
2018-04-14T03:49:54.264Z,98.50
2018-04-14T03:52:23.291Z,98.80
2018-04-14T03:54:51.481Z,98.60
2018-04-14T03:57:19.722Z,98.60
2018-04-14T03:59:47.591Z,98.60
2018-04-14T04:02:15.631Z,98.50
2018-04-14T04:04:43.915Z,98.50
2018-04-14T04:07:12.017Z,98.40
2018-04-14T04:09:39.968Z,98.30
2018-04-14T04:12:08.203Z,98.20
2018-04-14T04:14:36.496Z,98.00
2018-04-14T04:17:05.521Z,98.00
2018-04-14T04:19:45.561Z,98.00
2018-04-14T04:22:25.943Z,97.90
2018-04-14T04:25:05.760Z,97.80
2018-04-14T04:27:34.626Z,97.60
2018-04-14T04:30:02.847Z,97.60
2018-04-14T04:32:31.713Z,97.40
2018-04-14T04:34:59.595Z,97.40
2018-04-14T04:37:27.835Z,97.50
2018-04-14T04:39:56.079Z,97.40
2018-04-14T04:42:24.178Z,97.60
2018-04-14T04:44:52.366Z,97.40
2018-04-14T04:47:20.313Z,97.30
2018-04-14T04:49:48.405Z,97.30
2018-04-14T04:52:16.621Z,97.80
2018-04-14T04:54:45.490Z,98.50
2018-04-14T04:57:13.777Z,98.50
2018-04-14T04:59:42.615Z,98.70
2018-04-14T05:02:10.850Z,98.80
2018-04-14T05:04:39.057Z,98.90
2018-04-14T05:07:07.275Z,98.80
2018-04-14T05:09:36.118Z,98.80
2018-04-14T05:12:04.419Z,98.80
2018-04-14T05:14:32.526Z,98.80
2018-04-14T05:17:01.096Z,99.10
2018-04-14T05:19:29.286Z,99.30
2018-04-14T05:21:57.185Z,99.20
2018-04-14T05:24:25.142Z,99.10
2018-04-14T05:26:53.237Z,99.10
2018-04-14T05:29:21.518Z,99.10
2018-04-14T05:31:50.127Z,99.30
2018-04-14T05:34:18.403Z,99.80
2018-04-14T05:36:46.638Z,99.80
2018-04-14T05:39:14.882Z,99.90
2018-04-14T05:41:43.113Z,99.70
2018-04-14T05:44:11.366Z,99.50
2018-04-14T05:46:39.597Z,99.50
2018-04-14T05:49:07.860Z,99.20
2018-04-14T05:51:36.782Z,98.90
2018-04-14T05:54:04.875Z,98.90
2018-04-14T05:56:32.777Z,99.00
2018-04-14T05:59:00.826Z,98.30
2018-04-14T06:01:29.064Z,98.00
2018-04-14T06:03:57.306Z,97.90
2018-04-14T06:06:25.408Z,97.90
2018-04-14T06:08:53.553Z,97.80
2018-04-14T06:11:21.844Z,97.80
2018-04-14T06:13:50.020Z,97.60
2018-04-14T06:16:18.677Z,97.70
2018-04-14T06:18:46.959Z,97.70
2018-04-14T06:21:14.970Z,97.80
2018-04-14T06:23:43.183Z,97.60
2018-04-14T06:26:12.044Z,97.60
2018-04-14T06:28:40.062Z,97.60
2018-04-14T06:31:08.907Z,96.60
2018-04-14T06:33:37.003Z,96.60
2018-04-14T06:36:05.589Z,96.10
2018-04-14T06:38:33.832Z,96.00
2018-04-14T06:41:02.072Z,95.50
2018-04-14T06:43:30.375Z,95.30
2018-04-14T06:45:58.379Z,94.90
2018-04-14T06:48:26.261Z,94.40
2018-04-14T06:50:54.504Z,94.00
2018-04-14T06:53:22.746Z,93.90
2018-04-14T06:55:50.930Z,93.60
2018-04-14T06:58:19.035Z,93.50
2018-04-14T07:00:47.141Z,94.00
2018-04-14T07:03:15.277Z,93.60
2018-04-14T07:05:43.566Z,93.40
2018-04-14T07:08:11.635Z,92.90
2018-04-14T07:10:39.860Z,93.90
2018-04-14T07:13:09.018Z,94.00
2018-04-14T07:15:37.316Z,94.50
2018-04-14T07:18:05.565Z,94.40
2018-04-14T07:20:33.859Z,94.80
2018-04-14T07:23:01.858Z,95.10
2018-04-14T07:25:30.891Z,94.20
2018-04-14T07:27:59.911Z,94.30
2018-04-14T07:30:28.160Z,94.20
2018-04-14T07:32:56.395Z,93.90
2018-04-14T07:35:24.581Z,92.80
2018-04-14T07:37:52.688Z,93.40
2018-04-14T07:40:21.682Z,93.00
2018-04-14T07:42:49.901Z,93.00
2018-04-14T07:45:17.809Z,93.10
2018-04-14T07:47:46.049Z,92.90
2018-04-14T07:50:14.229Z,92.50
2018-04-14T07:52:43.096Z,93.00
2018-04-14T07:55:11.366Z,93.00
2018-04-14T07:57:39.521Z,91.90
2018-04-14T08:00:07.600Z,92.50
2018-04-14T08:02:35.669Z,92.50
2018-04-14T08:05:03.807Z,91.80
2018-04-14T08:07:31.951Z,92.10
2018-04-14T08:10:00.230Z,91.10
2018-04-14T08:12:28.582Z,91.70
2018-04-14T08:14:56.675Z,90.60
2018-04-14T08:17:25.426Z,92.00
2018-04-14T08:19:53.602Z,91.60
2018-04-14T08:22:22.623Z,89.90
2018-04-14T08:24:50.875Z,89.80
2018-04-14T08:27:18.912Z,89.80
2018-04-14T08:29:46.925Z,90.10
2018-04-14T08:32:15.205Z,88.60
2018-04-14T08:34:43.443Z,89.80
2018-04-14T08:37:11.729Z,90.10
2018-04-14T08:39:39.800Z,89.90
2018-04-14T08:42:07.913Z,90.60
2018-04-14T08:44:37.001Z,90.70
2018-04-14T08:47:05.297Z,90.70
2018-04-14T08:49:33.447Z,91.10
2018-04-14T08:52:01.727Z,90.60
2018-04-14T08:54:29.973Z,91.10
2018-04-14T08:56:57.919Z,89.50
2018-04-14T08:59:26.008Z,87.70
2018-04-14T09:01:54.146Z,90.30
2018-04-14T09:04:22.350Z,90.60
2018-04-14T09:06:50.535Z,91.80
2018-04-14T09:09:18.642Z,91.50
2018-04-14T09:11:46.881Z,90.70
2018-04-14T09:14:14.889Z,91.30
2018-04-14T09:16:43.170Z,91.00
2018-04-14T09:19:11.396Z,90.60
2018-04-14T09:21:39.657Z,90.90
2018-04-14T09:24:07.701Z,91.80
2018-04-14T09:26:35.896Z,91.00
2018-04-14T09:29:04.187Z,90.60
2018-04-14T09:31:32.330Z,90.90
2018-04-14T09:34:00.502Z,91.50
2018-04-14T09:36:28.691Z,91.50
2018-04-14T09:38:56.769Z,91.60
2018-04-14T09:41:24.876Z,92.00
2018-04-14T09:43:52.994Z,92.10
2018-04-14T09:46:21.886Z,91.10
2018-04-14T09:48:50.081Z,91.10
2018-04-14T09:51:18.131Z,91.30
2018-04-14T09:53:46.221Z,91.50
2018-04-14T09:56:14.463Z,91.50
2018-04-14T09:58:42.705Z,91.80
2018-04-14T10:01:16.570Z,91.00
2018-04-14T10:03:51.193Z,90.00
2018-04-14T10:06:19.425Z,90.00
2018-04-14T10:08:47.666Z,89.70
2018-04-14T10:11:15.782Z,88.70
2018-04-14T10:13:43.750Z,88.00
2018-04-14T10:16:12.058Z,87.90
2018-04-14T10:18:40.248Z,85.70
2018-04-14T10:21:08.840Z,86.00
2018-04-14T10:23:37.124Z,85.60
2018-04-14T10:26:05.370Z,86.30
2018-04-14T10:28:33.558Z,85.00
2018-04-14T10:31:01.850Z,84.00
2018-04-14T10:33:29.961Z,83.70
2018-04-14T10:35:58.143Z,83.70
2018-04-14T10:38:26.244Z,85.20
2018-04-14T10:40:54.365Z,88.30
2018-04-14T10:43:23.229Z,87.50
2018-04-14T10:45:51.502Z,87.50
2018-04-14T10:48:19.745Z,87.30
2018-04-14T10:50:47.753Z,86.40
2018-04-14T10:53:16.186Z,85.00
2018-04-14T10:55:44.493Z,83.90
2018-04-14T10:58:13.358Z,82.50
2018-04-14T11:00:41.352Z,82.40
2018-04-14T11:03:09.549Z,81.40
2018-04-14T11:05:37.640Z,82.10
2018-04-14T11:08:05.884Z,83.40
2018-04-14T11:10:34.127Z,82.40
2018-04-14T11:13:02.368Z,83.30
2018-04-14T11:15:30.607Z,81.30
2018-04-14T11:17:58.852Z,80.00
2018-04-14T11:20:27.088Z,80.80
2018-04-14T11:22:55.340Z,79.30
2018-04-14T11:25:23.581Z,78.50
2018-04-14T11:27:51.765Z,79.80
2018-04-14T11:30:20.662Z,78.20
2018-04-14T11:32:48.902Z,78.20
2018-04-14T11:35:17.890Z,80.60
2018-04-14T11:37:46.142Z,79.90
2018-04-14T11:40:14.351Z,78.90
2018-04-14T11:42:42.395Z,79.70
2018-04-14T11:45:11.260Z,76.20
2018-04-14T11:47:39.533Z,76.20
2018-04-14T11:50:07.771Z,79.70
2018-04-14T11:52:35.780Z,80.40
2018-04-14T11:55:04.064Z,80.20
2018-04-14T11:57:32.247Z,80.70
2018-04-14T12:00:01.117Z,75.60
2018-04-14T12:02:29.381Z,75.60
2018-04-14T12:04:57.423Z,73.90
2018-04-14T12:07:25.539Z,74.40
2018-04-14T12:09:53.744Z,74.20
2018-04-14T12:12:22.750Z,70.40
2018-04-14T12:14:50.891Z,70.30
2018-04-14T12:17:19.036Z,67.50
2018-04-14T12:19:47.275Z,70.60
2018-04-14T12:22:15.278Z,69.80
2018-04-14T12:24:43.910Z,68.60
2018-04-14T12:27:12.151Z,68.90
2018-04-14T12:29:40.443Z,70.50
2018-04-14T12:32:08.636Z,70.60
2018-04-14T12:34:36.946Z,70.90
2018-04-14T12:37:05.122Z,71.90
2018-04-14T12:39:33.335Z,70.90
2018-04-14T12:42:02.248Z,67.60
2018-04-14T12:44:30.487Z,67.50
2018-04-14T12:46:58.715Z,66.80
2018-04-14T12:49:27.009Z,67.20
2018-04-14T12:51:54.981Z,66.90
2018-04-14T12:54:23.262Z,65.50
2018-04-14T12:56:51.384Z,64.90
2018-04-14T12:59:19.589Z,64.50
2018-04-14T13:01:48.534Z,64.10
2018-04-14T13:04:16.710Z,65.10
2018-04-14T13:06:44.803Z,65.40
2018-04-14T13:09:13.678Z,64.10
2018-04-14T13:11:41.863Z,64.70
2018-04-14T13:14:10.754Z,63.70
2018-04-14T13:16:38.783Z,62.90
2018-04-14T13:19:07.121Z,61.70
2018-04-14T13:21:34.923Z,63.00
2018-04-14T13:24:03.152Z,62.10
2018-04-14T13:26:31.397Z,70.50
2018-04-14T13:28:59.636Z,62.90
2018-04-14T13:31:27.880Z,62.00
2018-04-14T13:33:56.917Z,61.20
2018-04-14T13:36:25.152Z,60.30
2018-04-14T13:38:53.053Z,60.40
2018-04-14T13:41:21.119Z,61.50
2018-04-14T13:43:49.290Z,59.30
2018-04-14T13:46:17.452Z,59.00
2018-04-14T13:48:46.128Z,58.50
2018-04-14T13:51:13.963Z,58.50
2018-04-14T13:53:41.930Z,57.60
2018-04-14T13:56:10.046Z,59.30
2018-04-14T13:58:38.913Z,57.80
2018-04-14T14:01:07.184Z,57.80
2018-04-14T14:03:35.232Z,57.90
2018-04-14T14:06:03.414Z,58.90
2018-04-14T14:08:31.522Z,57.10
2018-04-14T14:10:59.536Z,58.00
2018-04-14T14:13:27.808Z,57.70
2018-04-14T14:15:55.809Z,59.00
2018-04-14T14:18:24.096Z,58.90
2018-04-14T14:20:52.339Z,58.10
2018-04-14T14:23:20.581Z,56.10
2018-04-14T14:25:48.679Z,56.90
2018-04-14T14:28:16.825Z,57.10
2018-04-14T14:30:44.921Z,59.00
2018-04-14T14:33:13.930Z,57.60
2018-04-14T14:35:42.187Z,57.50
2018-04-14T14:38:10.298Z,58.10
2018-04-14T14:40:38.430Z,57.50
2018-04-14T14:43:06.624Z,57.50
2018-04-14T14:45:34.731Z,58.30
2018-04-14T14:48:03.007Z,56.50
2018-04-14T14:50:31.248Z,55.90
2018-04-14T14:52:59.454Z,56.80
2018-04-14T14:55:27.436Z,55.80
2018-04-14T14:57:55.593Z,57.50
2018-04-14T15:00:23.826Z,56.90
2018-04-14T15:02:52.063Z,56.80
2018-04-14T15:05:20.323Z,57.10
2018-04-14T15:07:48.548Z,57.20
2018-04-14T15:10:16.992Z,58.40
2018-04-14T15:12:45.233Z,57.80
2018-04-14T15:15:13.477Z,57.30
2018-04-14T15:17:41.717Z,58.40
2018-04-14T15:20:09.961Z,59.00
2018-04-14T15:22:38.204Z,58.40
2018-04-14T15:25:06.447Z,57.00
2018-04-14T15:27:34.211Z,58.10
2018-04-14T15:30:02.540Z,58.00
2018-04-14T15:32:30.784Z,58.90
2018-04-14T15:34:58.959Z,59.10
2018-04-14T15:37:27.836Z,59.80
2018-04-14T15:39:55.967Z,59.80
2018-04-14T15:42:24.537Z,60.00
2018-04-14T15:44:52.776Z,63.10
2018-04-14T15:47:20.893Z,62.90
2018-04-14T15:49:49.014Z,64.00
2018-04-14T15:52:16.917Z,60.90
2018-04-14T15:54:45.095Z,62.80
2018-04-14T15:57:13.948Z,60.60
2018-04-14T15:59:42.153Z,60.60
2018-04-14T16:02:11.022Z,60.50
2018-04-14T16:04:39.361Z,60.50
2018-04-14T16:07:07.306Z,60.50
2018-04-14T16:09:35.551Z,61.90
2018-04-14T16:12:03.839Z,62.80
2018-04-14T16:14:32.408Z,61.50
2018-04-14T16:17:01.309Z,63.50
2018-04-14T16:19:29.554Z,63.50
2018-04-14T16:21:57.793Z,63.70
2018-04-14T16:24:26.951Z,63.40
2018-04-14T16:26:55.850Z,65.20
2018-04-14T16:29:24.094Z,65.20
2018-04-14T16:31:52.339Z,66.50
2018-04-14T16:34:20.578Z,66.80
2018-04-14T16:36:48.821Z,67.00
2018-04-14T16:39:17.406Z,67.30
2018-04-14T16:41:45.648Z,68.20
2018-04-14T16:44:13.555Z,68.30
2018-04-14T16:46:42.779Z,70.10
2018-04-14T16:49:10.873Z,70.00
2018-04-14T16:51:38.866Z,70.80
2018-04-14T16:54:06.715Z,70.60
2018-04-14T16:56:34.956Z,71.20
2018-04-14T16:59:03.201Z,71.80
2018-04-14T17:01:31.443Z,71.70
2018-04-14T17:03:59.553Z,71.80
2018-04-14T17:06:27.671Z,71.80
2018-04-14T17:08:55.777Z,71.30
2018-04-14T17:11:23.913Z,71.80
2018-04-14T17:13:52.067Z,70.90
2018-04-14T17:16:20.165Z,71.20
2018-04-14T17:18:48.307Z,72.00
2018-04-14T17:21:16.547Z,72.40
2018-04-14T17:23:44.613Z,71.70
2018-04-14T17:26:12.650Z,71.40
2018-04-14T17:28:40.932Z,72.40
2018-04-14T17:31:09.040Z,71.80
2018-04-14T17:33:37.021Z,72.50
2018-04-14T17:36:05.263Z,72.40
2018-04-14T17:38:33.223Z,72.70
2018-04-14T17:41:01.311Z,73.90
2018-04-14T17:43:29.402Z,74.20
2018-04-14T17:45:57.805Z,71.60
2018-04-14T17:48:26.084Z,72.60
2018-04-14T17:50:54.327Z,72.70
2018-04-14T17:53:22.455Z,73.90
2018-04-14T17:55:50.565Z,73.50
2018-04-14T17:58:18.625Z,73.80
2018-04-14T18:00:46.671Z,74.00
2018-04-14T18:03:14.941Z,73.40
2018-04-14T18:05:43.306Z,74.10
2018-04-14T18:08:11.405Z,75.00
2018-04-14T18:10:39.616Z,75.50
2018-04-14T18:13:08.667Z,75.40
2018-04-14T18:15:36.949Z,75.30
2018-04-14T18:22:39.928Z,75.10
2018-04-14T18:25:08.195Z,75.80
2018-04-14T18:27:36.287Z,76.50
2018-04-14T18:30:04.529Z,75.90
2018-04-14T18:32:32.625Z,77.00
2018-04-14T18:35:01.588Z,77.80
2018-04-14T18:37:29.660Z,77.50
2018-04-14T18:39:57.744Z,78.10
2018-04-14T18:42:25.939Z,77.60
2018-04-14T18:44:53.836Z,78.60
2018-04-14T18:47:21.997Z,78.80
2018-04-14T18:49:50.065Z,79.30
2018-04-14T18:52:18.131Z,79.80
2018-04-14T18:54:46.599Z,80.00
2018-04-14T18:57:14.855Z,80.50
2018-04-14T18:59:43.085Z,81.10
2018-04-14T19:02:11.097Z,81.70
2018-04-14T19:04:39.307Z,82.30
2018-04-14T19:07:08.218Z,83.20
2018-04-14T19:09:36.104Z,83.10
2018-04-14T19:12:04.245Z,83.70
2018-04-14T19:14:32.157Z,83.30
2018-04-14T19:17:00.378Z,83.00
2018-04-14T19:19:28.640Z,82.90
2018-04-14T19:21:56.904Z,83.30
2018-04-14T19:24:25.125Z,83.90
2018-04-14T19:26:54.099Z,85.10
2018-04-14T19:29:22.399Z,84.50
2018-04-14T19:31:50.643Z,85.20
2018-04-14T19:34:18.848Z,86.60
2018-04-14T19:36:47.124Z,86.60
2018-04-14T19:39:16.153Z,88.10
2018-04-14T19:41:44.752Z,88.10
2018-04-14T19:44:13.035Z,88.60
2018-04-14T19:46:41.761Z,90.40
2018-04-14T19:49:09.853Z,90.40
2018-04-14T19:51:37.759Z,90.40
2018-04-14T19:54:06.002Z,90.90
2018-04-14T19:56:33.905Z,90.90
2018-04-14T19:59:02.224Z,90.80
2018-04-14T20:01:31.283Z,90.00
2018-04-14T20:03:59.757Z,89.90
2018-04-14T20:06:28.002Z,89.60
2018-04-14T20:08:56.043Z,89.50
2018-04-14T20:11:24.289Z,90.10
2018-04-14T20:13:52.523Z,90.40
2018-04-14T20:16:20.778Z,91.00
2018-04-14T20:18:48.958Z,91.50
2018-04-14T20:21:17.470Z,91.80
2018-04-14T20:23:45.266Z,91.50
2018-04-14T20:26:13.556Z,91.10
2018-04-14T20:28:42.575Z,92.10
2018-04-14T20:31:11.035Z,92.10
2018-04-14T20:33:39.261Z,92.10
2018-04-14T20:36:07.501Z,92.70
2018-04-14T20:38:35.694Z,93.00
2018-04-14T20:41:03.666Z,93.20
2018-04-14T20:43:31.607Z,92.90
2018-04-14T20:45:59.877Z,93.50
2018-04-14T20:48:28.121Z,93.60
2018-04-14T20:50:56.131Z,93.50
2018-04-14T20:53:24.372Z,93.50
2018-04-14T20:55:52.390Z,93.70
2018-04-14T20:58:21.265Z,94.00
2018-04-14T21:00:49.531Z,94.00
2018-04-14T21:03:18.114Z,94.00
2018-04-14T21:05:46.080Z,93.60
2018-04-14T21:08:14.221Z,94.50
2018-04-14T21:10:42.502Z,94.90
2018-04-14T21:13:10.507Z,94.90
2018-04-14T21:15:38.742Z,95.10
2018-04-14T21:18:06.707Z,94.90
2018-04-14T21:20:34.823Z,95.00
2018-04-14T21:23:03.862Z,95.40
2018-04-14T21:25:32.152Z,95.40
2018-04-14T21:28:00.292Z,95.90
2018-04-14T21:30:28.440Z,95.20
2018-04-14T21:32:56.620Z,95.90
2018-04-14T21:35:25.908Z,95.20
2018-04-14T21:37:54.346Z,95.20
2018-04-14T21:40:22.738Z,96.00
2018-04-14T21:42:50.637Z,96.30
2018-04-14T21:45:18.593Z,96.00
2018-04-14T21:47:46.727Z,95.40
2018-04-14T21:50:15.755Z,96.20
2018-04-14T21:52:43.807Z,96.20
2018-04-14T21:55:11.857Z,96.60
2018-04-14T21:57:40.089Z,96.60
2018-04-14T22:00:08.333Z,96.70
2018-04-14T22:02:36.479Z,96.80
2018-04-14T22:05:04.817Z,96.70
2018-04-14T22:07:32.933Z,96.30
2018-04-14T22:10:01.110Z,96.10
2018-04-14T22:12:29.349Z,96.00
2018-04-14T22:14:57.593Z,95.70
2018-04-14T22:17:25.843Z,95.90
2018-04-14T22:19:54.016Z,96.00
2018-04-14T22:22:23.116Z,96.10
2018-04-14T22:24:51.348Z,96.00
2018-04-14T22:27:19.737Z,96.70
2018-04-14T22:29:47.956Z,96.60
2018-04-14T22:32:16.799Z,96.10
2018-04-14T22:34:45.891Z,96.90
2018-04-14T22:37:14.134Z,96.90
2018-04-14T22:39:42.382Z,96.90
2018-04-14T22:42:10.361Z,96.90
2018-04-14T22:44:39.210Z,97.20
2018-04-14T22:47:07.287Z,97.20
2018-04-14T22:49:35.544Z,97.50
2018-04-14T22:52:03.785Z,97.80
2018-04-14T22:54:31.798Z,97.80
2018-04-14T22:57:00.074Z,97.90
2018-04-14T22:59:28.237Z,97.90
2018-04-14T23:01:57.288Z,97.70
2018-04-14T23:04:25.596Z,97.60
2018-04-14T23:06:53.828Z,97.80
2018-04-14T23:09:22.078Z,97.80
2018-04-14T23:11:50.303Z,97.30
2018-04-14T23:14:18.557Z,97.30
2018-04-14T23:16:46.704Z,97.80
2018-04-14T23:19:14.894Z,97.70
2018-04-14T23:21:42.996Z,97.70
2018-04-14T23:24:11.281Z,97.00
2018-04-14T23:26:39.573Z,96.90
2018-04-14T23:29:07.813Z,97.30
2018-04-14T23:31:36.055Z,97.00
2018-04-14T23:34:04.248Z,97.40
2018-04-14T23:36:32.540Z,96.90
2018-04-14T23:39:00.783Z,97.40
2018-04-14T23:41:29.031Z,97.80
2018-04-14T23:43:57.413Z,97.30
2018-04-14T23:46:25.665Z,97.50
2018-04-14T23:48:53.899Z,97.20
2018-04-14T23:51:22.143Z,97.60
2018-04-14T23:53:50.582Z,98.10
2018-04-14T23:56:18.824Z,97.50
2018-04-14T23:58:47.317Z,97.50
